Time;durP1;ratioP1;P1;durP2;ratioP2;P2;SDS_P1;SDS_P2;PMS_P1;PMS_P2;Temp;Humidity;BMP_temperature;BMP_pressure;BME280_temperature;BME280_humidity;BME280_pressure;Samples;Min_cycle;Max_cycle;Signal;HPM_P1;HPM_P2
2021/12/14 00:00:18;;;;;;;;;;;25.50;29.50;;;;;;509359;234;2096;-47
2021/12/14 00:02:20;;;;;;;;;;;25.50;29.50;;;;;;509186;234;1155;-47
2021/12/14 00:04:21;;;;;;;;;;;25.50;29.50;;;;;;509086;234;1076;-47
2021/12/14 00:06:22;;;;;;;;;;;25.50;29.50;;;;;;509309;234;1202;-47
2021/12/14 00:08:26;;;;;;;;;;;25.50;29.50;;;;;;509121;234;1253;-47
2021/12/14 00:10:44;;;;;;;;;;;25.50;29.50;;;;;;508816;234;2373;-46
2021/12/14 00:12:38;;;;;;;;;;;25.50;29.50;;;;;;508351;233;2631;-46
2021/12/14 00:16:54;;;;;;;;;;;25.50;29.50;;;;;;508931;233;1199;-47
2021/12/14 00:18:54;;;;;;;;;;;25.50;29.50;;;;;;508885;234;2184;-47
2021/12/14 00:20:56;;;;;;;;;;;25.50;29.50;;;;;;509463;234;2179;-47
2021/12/14 00:25:16;;;;;;;;;;;25.50;29.50;;;;;;508938;234;1214;-47
2021/12/14 00:27:18;;;;;;;;;;;25.50;29.50;;;;;;508897;234;1360;-47
2021/12/14 00:29:19;;;;;;;;;;;25.50;29.50;;;;;;509458;234;1149;-47
2021/12/14 00:31:21;;;;;;;;;;;25.50;29.50;;;;;;509415;234;1283;-47
2021/12/14 00:33:22;;;;;;;;;;;25.50;29.50;;;;;;509003;234;1138;-47
2021/12/14 00:35:23;;;;;;;;;;;25.50;29.50;;;;;;509491;234;1094;-47
2021/12/14 00:37:24;;;;;;;;;;;25.50;29.50;;;;;;509341;234;1208;-47
2021/12/14 00:39:26;;;;;;;;;;;25.50;29.50;;;;;;509102;234;1118;-47
2021/12/14 00:41:27;;;;;;;;;;;25.50;29.50;;;;;;509159;234;2128;-47
2021/12/14 00:43:28;;;;;;;;;;;25.50;29.50;;;;;;508935;234;1034;-47
2021/12/14 00:45:30;;;;;;;;;;;25.50;29.50;;;;;;509413;234;1080;-47
2021/12/14 00:47:31;;;;;;;;;;;25.50;29.50;;;;;;508860;234;1234;-47
2021/12/14 00:49:32;;;;;;;;;;;25.50;29.50;;;;;;508952;234;1016;-47
2021/12/14 00:51:34;;;;;;;;;;;25.50;29.50;;;;;;509419;234;1346;-47
2021/12/14 00:53:35;;;;;;;;;;;25.50;29.50;;;;;;509334;234;1119;-47
2021/12/14 00:55:36;;;;;;;;;;;25.50;29.50;;;;;;508959;234;1073;-47
2021/12/14 00:57:38;;;;;;;;;;;25.50;29.50;;;;;;508954;234;1083;-47
2021/12/14 00:59:39;;;;;;;;;;;25.60;29.50;;;;;;509325;234;1068;-47
2021/12/14 01:01:41;;;;;;;;;;;25.50;29.40;;;;;;508830;234;2167;-47
2021/12/14 01:03:41;;;;;;;;;;;25.50;29.50;;;;;;509178;233;2352;-47
2021/12/14 01:05:43;;;;;;;;;;;25.50;29.40;;;;;;509004;234;1706;-47
2021/12/14 01:07:44;;;;;;;;;;;25.50;29.40;;;;;;508862;234;1231;-47
2021/12/14 01:09:45;;;;;;;;;;;25.50;29.50;;;;;;508969;232;1175;-47
2021/12/14 01:11:47;;;;;;;;;;;25.50;29.50;;;;;;508882;234;1123;-47
2021/12/14 01:13:54;;;;;;;;;;;25.50;29.50;;;;;;509399;234;1078;-47
2021/12/14 01:15:52;;;;;;;;;;;25.50;29.40;;;;;;508962;233;1994;-47
2021/12/14 01:18:02;;;;;;;;;;;25.50;29.40;;;;;;508726;234;1765;-46
2021/12/14 01:19:58;;;;;;;;;;;25.50;29.50;;;;;;508407;234;2265;-47
2021/12/14 01:24:24;;;;;;;;;;;25.50;29.40;;;;;;508798;234;1321;-47
2021/12/14 01:26:22;;;;;;;;;;;25.50;29.40;;;;;;508632;234;2333;-47
2021/12/14 01:28:23;;;;;;;;;;;25.40;29.40;;;;;;508942;234;1177;-47
2021/12/14 01:30:25;;;;;;;;;;;25.50;29.50;;;;;;509094;234;1226;-47
2021/12/14 01:32:30;;;;;;;;;;;25.50;29.40;;;;;;508843;233;1991;-47
2021/12/14 01:34:30;;;;;;;;;;;25.50;29.40;;;;;;508794;233;1564;-47
2021/12/14 01:36:36;;;;;;;;;;;25.50;29.40;;;;;;508758;234;2278;-47
2021/12/14 01:38:35;;;;;;;;;;;25.50;29.40;;;;;;508407;234;2406;-47
2021/12/14 01:40:53;;;;;;;;;;;25.50;29.40;;;;;;508831;234;2207;-47
2021/12/14 01:42:55;;;;;;;;;;;25.50;29.40;;;;;;509431;234;1161;-47
2021/12/14 01:44:56;;;;;;;;;;;25.50;29.40;;;;;;509275;234;984;-47
2021/12/14 01:46:57;;;;;;;;;;;25.50;29.40;;;;;;509375;234;1030;-47
2021/12/14 01:49:02;;;;;;;;;;;25.50;29.40;;;;;;509140;234;1051;-47
2021/12/14 01:51:00;;;;;;;;;;;25.50;29.40;;;;;;509177;233;1984;-47
2021/12/14 01:53:01;;;;;;;;;;;25.50;29.40;;;;;;508993;234;1205;-47
2021/12/14 01:55:02;;;;;;;;;;;25.50;29.40;;;;;;508929;234;1229;-47
2021/12/14 01:57:04;;;;;;;;;;;25.50;29.40;;;;;;509099;234;1255;-47
2021/12/14 01:59:05;;;;;;;;;;;25.50;29.30;;;;;;508966;234;1036;-47
2021/12/14 02:01:07;;;;;;;;;;;25.50;29.30;;;;;;508327;234;2183;-47
2021/12/14 02:03:08;;;;;;;;;;;25.40;29.30;;;;;;508635;234;1162;-47
2021/12/14 02:05:09;;;;;;;;;;;25.50;29.40;;;;;;508687;234;1055;-47
2021/12/14 02:07:11;;;;;;;;;;;25.50;29.40;;;;;;508894;234;1307;-47
2021/12/14 02:09:12;;;;;;;;;;;25.50;29.40;;;;;;508935;234;1002;-47
2021/12/14 02:11:13;;;;;;;;;;;25.50;29.40;;;;;;508363;233;1326;-47
2021/12/14 02:13:15;;;;;;;;;;;25.50;29.40;;;;;;508405;234;1205;-47
2021/12/14 02:15:16;;;;;;;;;;;25.50;29.30;;;;;;508420;234;1201;-47
2021/12/14 02:17:17;;;;;;;;;;;25.50;29.40;;;;;;508901;234;1396;-47
2021/12/14 02:19:18;;;;;;;;;;;25.50;29.30;;;;;;509457;234;1272;-47
2021/12/14 02:21:20;;;;;;;;;;;25.50;29.30;;;;;;509352;234;2199;-47
2021/12/14 02:23:21;;;;;;;;;;;25.50;29.30;;;;;;508951;234;1226;-47
2021/12/14 02:25:22;;;;;;;;;;;25.50;29.30;;;;;;508969;234;1217;-47
2021/12/14 02:27:24;;;;;;;;;;;25.50;29.30;;;;;;508941;234;1196;-47
2021/12/14 02:29:25;;;;;;;;;;;25.50;29.30;;;;;;508991;234;1109;-47
2021/12/14 02:31:26;;;;;;;;;;;25.50;29.30;;;;;;509324;234;1251;-47
2021/12/14 02:33:29;;;;;;;;;;;25.50;29.30;;;;;;509372;234;1307;-47
2021/12/14 02:35:29;;;;;;;;;;;25.50;29.30;;;;;;509420;234;2380;-47
2021/12/14 02:37:30;;;;;;;;;;;25.50;29.30;;;;;;509458;234;1227;-47
2021/12/14 02:39:47;;;;;;;;;;;25.50;29.30;;;;;;509030;234;1027;-47
2021/12/14 02:41:38;;;;;;;;;;;25.50;29.30;;;;;;508234;234;2188;-47
2021/12/14 02:43:39;;;;;;;;;;;25.50;29.30;;;;;;509461;234;1252;-47
2021/12/14 02:45:40;;;;;;;;;;;25.50;29.30;;;;;;509478;234;1011;-47
2021/12/14 02:47:41;;;;;;;;;;;25.60;29.30;;;;;;509441;234;1136;-47
2021/12/14 02:49:43;;;;;;;;;;;25.50;29.20;;;;;;509005;234;1036;-47
2021/12/14 02:51:44;;;;;;;;;;;25.50;29.30;;;;;;509334;234;1271;-47
2021/12/14 02:53:45;;;;;;;;;;;25.50;29.30;;;;;;509312;234;981;-47
2021/12/14 02:55:47;;;;;;;;;;;25.50;29.30;;;;;;509203;234;1206;-47
2021/12/14 02:57:48;;;;;;;;;;;25.50;29.30;;;;;;508972;234;1102;-47
2021/12/14 02:59:49;;;;;;;;;;;25.50;29.20;;;;;;509250;234;1116;-47
2021/12/14 03:01:51;;;;;;;;;;;25.50;29.20;;;;;;508939;234;2122;-47
2021/12/14 03:03:52;;;;;;;;;;;25.50;29.30;;;;;;509231;234;936;-47
2021/12/14 03:05:53;;;;;;;;;;;25.60;29.30;;;;;;509126;234;1377;-47
2021/12/14 03:07:55;;;;;;;;;;;25.50;29.20;;;;;;508910;234;1339;-47
2021/12/14 03:09:59;;;;;;;;;;;25.50;29.20;;;;;;509319;234;1088;-47
2021/12/14 03:11:57;;;;;;;;;;;25.50;29.20;;;;;;508789;233;1906;-47
2021/12/14 03:13:59;;;;;;;;;;;25.50;29.20;;;;;;508985;234;1049;-47
2021/12/14 03:16:00;;;;;;;;;;;25.50;29.20;;;;;;509217;234;1334;-47
2021/12/14 03:18:01;;;;;;;;;;;25.60;29.30;;;;;;509456;234;1258;-47
2021/12/14 03:20:02;;;;;;;;;;;25.50;29.20;;;;;;509482;234;1056;-46
2021/12/14 03:22:04;;;;;;;;;;;25.50;29.20;;;;;;509221;234;2180;-47
2021/12/14 03:24:05;;;;;;;;;;;25.60;29.20;;;;;;509392;234;1186;-47
2021/12/14 03:26:07;;;;;;;;;;;25.60;29.30;;;;;;509174;234;1268;-47
2021/12/14 03:28:08;;;;;;;;;;;25.50;29.20;;;;;;509394;234;1167;-47
2021/12/14 03:30:09;;;;;;;;;;;25.50;29.20;;;;;;509472;234;1004;-47
2021/12/14 03:32:10;;;;;;;;;;;25.50;29.20;;;;;;508828;234;1371;-47
2021/12/14 03:34:12;;;;;;;;;;;25.50;29.20;;;;;;509015;234;1207;-47
2021/12/14 03:36:13;;;;;;;;;;;25.50;29.20;;;;;;508885;234;1173;-47
2021/12/14 03:38:15;;;;;;;;;;;25.50;29.20;;;;;;509305;234;1238;-47
2021/12/14 03:40:16;;;;;;;;;;;25.50;29.20;;;;;;508962;234;2328;-47
2021/12/14 03:42:18;;;;;;;;;;;25.50;29.20;;;;;;508902;234;2145;-47
2021/12/14 03:44:19;;;;;;;;;;;25.50;29.20;;;;;;508925;234;1043;-46
2021/12/14 03:46:20;;;;;;;;;;;25.50;29.20;;;;;;508826;234;1148;-47
2021/12/14 03:48:21;;;;;;;;;;;25.50;29.20;;;;;;509152;234;1011;-47
2021/12/14 03:50:23;;;;;;;;;;;25.50;29.20;;;;;;509464;234;1114;-47
2021/12/14 03:52:24;;;;;;;;;;;25.50;29.10;;;;;;509187;234;1203;-47
2021/12/14 03:54:26;;;;;;;;;;;25.50;29.10;;;;;;509322;234;1270;-47
2021/12/14 03:56:27;;;;;;;;;;;25.60;29.20;;;;;;509130;234;1397;-47
2021/12/14 03:58:30;;;;;;;;;;;25.50;29.10;;;;;;509096;234;981;-47
2021/12/14 04:00:30;;;;;;;;;;;25.50;29.10;;;;;;508808;234;1921;-47
2021/12/14 04:02:31;;;;;;;;;;;25.50;29.10;;;;;;509197;234;2116;-47
2021/12/14 04:04:33;;;;;;;;;;;25.50;29.10;;;;;;509455;234;1042;-47
2021/12/14 04:06:34;;;;;;;;;;;25.60;29.10;;;;;;508901;234;1385;-47
2021/12/14 04:08:35;;;;;;;;;;;25.60;29.10;;;;;;509220;234;1177;-46
2021/12/14 04:10:37;;;;;;;;;;;25.50;29.10;;;;;;508973;234;1536;-47
2021/12/14 04:12:38;;;;;;;;;;;25.60;29.10;;;;;;508953;234;1162;-47
2021/12/14 04:14:39;;;;;;;;;;;25.60;29.10;;;;;;508971;234;1068;-47
2021/12/14 04:16:40;;;;;;;;;;;25.60;29.10;;;;;;509030;234;1166;-47
2021/12/14 04:18:42;;;;;;;;;;;25.50;29.00;;;;;;509479;234;1226;-47
2021/12/14 04:20:43;;;;;;;;;;;25.50;29.10;;;;;;508941;234;1115;-47
2021/12/14 04:22:48;;;;;;;;;;;25.50;29.10;;;;;;509115;234;2117;-47
2021/12/14 04:24:46;;;;;;;;;;;25.50;29.10;;;;;;509052;233;1985;-47
2021/12/14 04:26:47;;;;;;;;;;;25.50;29.00;;;;;;508824;234;1555;-46
2021/12/14 04:28:48;;;;;;;;;;;25.50;29.00;;;;;;509396;234;1054;-47
2021/12/14 04:30:50;;;;;;;;;;;25.50;29.00;;;;;;508909;234;1126;-47
2021/12/14 04:32:51;;;;;;;;;;;25.50;29.00;;;;;;508977;234;1570;-47
2021/12/14 04:34:55;;;;;;;;;;;25.40;29.00;;;;;;509469;234;1030;-47
2021/12/14 04:36:55;;;;;;;;;;;25.40;29.00;;;;;;509078;233;2373;-47
2021/12/14 04:39:00;;;;;;;;;;;25.50;29.00;;;;;;509415;234;2401;-47
2021/12/14 04:52:33;;;;;;;;;;;25.40;28.80;;;;;;509197;233;1231;-47
2021/12/14 04:54:35;;;;;;;;;;;25.40;28.80;;;;;;508999;234;1039;-47
2021/12/14 04:56:37;;;;;;;;;;;25.50;28.80;;;;;;508850;234;1194;-47
2021/12/14 04:58:37;;;;;;;;;;;25.50;28.80;;;;;;509177;233;2319;-47
2021/12/14 05:00:39;;;;;;;;;;;25.40;28.80;;;;;;508890;234;1034;-47
2021/12/14 05:02:40;;;;;;;;;;;25.40;28.80;;;;;;508980;234;2128;-47
2021/12/14 05:04:41;;;;;;;;;;;25.40;28.80;;;;;;509025;234;1197;-47
2021/12/14 05:06:48;;;;;;;;;;;25.50;28.80;;;;;;508936;234;1178;-47
2021/12/14 05:11:07;;;;;;;;;;;25.40;28.70;;;;;;509280;233;1266;-47
2021/12/14 05:13:08;;;;;;;;;;;25.40;28.70;;;;;;508784;234;2188;-47
2021/12/14 05:15:09;;;;;;;;;;;25.40;28.70;;;;;;509378;234;1044;-47
2021/12/14 05:17:10;;;;;;;;;;;25.40;28.70;;;;;;509389;234;1360;-47
2021/12/14 05:19:12;;;;;;;;;;;25.50;28.70;;;;;;509440;234;1182;-47
2021/12/14 05:21:13;;;;;;;;;;;25.50;28.70;;;;;;509176;234;2192;-47
2021/12/14 05:23:15;;;;;;;;;;;25.40;28.60;;;;;;509117;234;1052;-47
2021/12/14 05:25:16;;;;;;;;;;;25.50;28.70;;;;;;509366;234;1060;-47
2021/12/14 05:27:17;;;;;;;;;;;25.50;28.70;;;;;;509017;234;1214;-47
2021/12/14 05:29:18;;;;;;;;;;;25.40;28.60;;;;;;508899;234;1195;-47
2021/12/14 05:31:20;;;;;;;;;;;25.40;28.60;;;;;;508805;234;1390;-47
2021/12/14 05:33:21;;;;;;;;;;;25.40;28.60;;;;;;509010;234;1115;-47
2021/12/14 05:35:22;;;;;;;;;;;25.50;28.60;;;;;;508866;234;1035;-47
2021/12/14 05:37:25;;;;;;;;;;;25.40;28.60;;;;;;508698;234;1200;-47
2021/12/14 05:39:44;;;;;;;;;;;25.40;28.60;;;;;;508795;233;1833;-47
2021/12/14 05:43:51;;;;;;;;;;;25.40;28.60;;;;;;508841;233;1829;-47
2021/12/14 05:45:53;;;;;;;;;;;25.40;28.60;;;;;;508691;234;1412;-47
2021/12/14 05:47:53;;;;;;;;;;;25.40;28.50;;;;;;508704;234;2085;-47
2021/12/14 05:49:55;;;;;;;;;;;25.50;28.60;;;;;;508964;234;1069;-47
2021/12/14 05:51:56;;;;;;;;;;;25.40;28.60;;;;;;508775;234;1321;-47
2021/12/14 05:53:57;;;;;;;;;;;25.40;28.50;;;;;;508942;234;1251;-47
2021/12/14 05:56:01;;;;;;;;;;;25.40;28.50;;;;;;508928;234;1128;-47
2021/12/14 05:58:01;;;;;;;;;;;25.40;28.50;;;;;;509042;233;1681;-47
2021/12/14 06:00:02;;;;;;;;;;;25.40;28.50;;;;;;509351;234;1216;-47
2021/12/14 06:02:04;;;;;;;;;;;25.40;28.50;;;;;;508829;234;2172;-47
2021/12/14 06:04:05;;;;;;;;;;;25.50;28.50;;;;;;508720;234;1175;-47
2021/12/14 06:06:06;;;;;;;;;;;25.40;28.50;;;;;;509074;234;1176;-47
2021/12/14 06:08:07;;;;;;;;;;;25.40;28.40;;;;;;508740;234;1115;-47
2021/12/14 06:10:09;;;;;;;;;;;25.50;28.50;;;;;;508770;234;1081;-47
2021/12/14 06:12:10;;;;;;;;;;;25.50;28.40;;;;;;509063;234;1191;-47
2021/12/14 06:14:11;;;;;;;;;;;25.40;28.40;;;;;;508819;234;1148;-47
2021/12/14 06:16:13;;;;;;;;;;;25.50;28.40;;;;;;508625;234;1216;-47
2021/12/14 06:18:14;;;;;;;;;;;25.40;28.40;;;;;;508574;234;1271;-47
2021/12/14 06:20:15;;;;;;;;;;;25.50;28.40;;;;;;508668;234;1067;-47
2021/12/14 06:22:17;;;;;;;;;;;25.40;28.40;;;;;;508772;234;2125;-47
2021/12/14 06:24:18;;;;;;;;;;;25.50;28.40;;;;;;508661;234;1156;-47
2021/12/14 06:26:19;;;;;;;;;;;25.40;28.40;;;;;;508894;234;1111;-47
2021/12/14 06:28:21;;;;;;;;;;;25.40;28.40;;;;;;508652;234;1207;-47
2021/12/14 06:30:22;;;;;;;;;;;25.40;28.40;;;;;;508709;234;1092;-47
2021/12/14 06:32:23;;;;;;;;;;;25.40;28.40;;;;;;508621;234;1243;-47
2021/12/14 06:34:25;;;;;;;;;;;25.50;28.40;;;;;;508874;234;2009;-47
2021/12/14 06:36:30;;;;;;;;;;;25.50;28.40;;;;;;508626;234;1233;-47
2021/12/14 06:38:28;;;;;;;;;;;25.50;28.40;;;;;;508405;234;1815;-47
2021/12/14 06:40:30;;;;;;;;;;;25.40;28.40;;;;;;508743;234;1202;-47
2021/12/14 06:42:31;;;;;;;;;;;25.40;28.40;;;;;;508834;234;2120;-47
2021/12/14 06:44:32;;;;;;;;;;;25.40;28.40;;;;;;508670;234;1240;-47
2021/12/14 06:46:34;;;;;;;;;;;25.40;28.40;;;;;;508532;234;1200;-47
2021/12/14 06:48:35;;;;;;;;;;;25.50;28.40;;;;;;508561;234;1067;-47
2021/12/14 06:50:36;;;;;;;;;;;25.50;28.40;;;;;;508714;234;1187;-47
2021/12/14 06:52:38;;;;;;;;;;;25.40;28.40;;;;;;508616;234;1188;-46
2021/12/14 06:54:39;;;;;;;;;;;25.50;28.40;;;;;;508568;234;1025;-47
2021/12/14 06:56:40;;;;;;;;;;;25.40;28.40;;;;;;508524;234;1233;-47
2021/12/14 06:58:42;;;;;;;;;;;25.40;28.40;;;;;;508702;234;1242;-47
2021/12/14 07:00:43;;;;;;;;;;;25.50;28.40;;;;;;508581;234;1189;-47
2021/12/14 07:02:44;;;;;;;;;;;25.50;28.40;;;;;;508562;234;2105;-47
2021/12/14 07:04:48;;;;;;;;;;;25.50;28.40;;;;;;508459;234;1246;-47
2021/12/14 07:06:47;;;;;;;;;;;25.50;28.40;;;;;;508250;234;2864;-47
2021/12/14 07:08:48;;;;;;;;;;;25.40;28.40;;;;;;508679;234;1480;-47
2021/12/14 07:10:50;;;;;;;;;;;25.40;28.40;;;;;;508462;234;1080;-46
2021/12/14 07:12:52;;;;;;;;;;;25.50;28.40;;;;;;508520;234;1080;-47
2021/12/14 07:14:53;;;;;;;;;;;25.50;28.30;;;;;;508413;234;2333;-47
2021/12/14 07:16:55;;;;;;;;;;;25.50;28.30;;;;;;508371;234;1330;-47
2021/12/14 07:18:55;;;;;;;;;;;25.50;28.30;;;;;;508466;234;1294;-46
2021/12/14 07:20:57;;;;;;;;;;;25.50;28.30;;;;;;508622;234;1311;-47
2021/12/14 07:23:00;;;;;;;;;;;25.50;28.30;;;;;;508399;234;2176;-47
2021/12/14 07:24:59;;;;;;;;;;;25.50;28.40;;;;;;508178;233;1275;-47
2021/12/14 07:27:01;;;;;;;;;;;25.50;28.40;;;;;;508359;234;1604;-47
2021/12/14 07:29:02;;;;;;;;;;;25.50;28.40;;;;;;508478;234;1166;-47
2021/12/14 07:31:03;;;;;;;;;;;25.50;28.40;;;;;;508483;234;1186;-47
2021/12/14 07:33:05;;;;;;;;;;;25.50;28.30;;;;;;508514;234;1123;-46
2021/12/14 07:35:06;;;;;;;;;;;25.50;28.40;;;;;;508607;234;1303;-47
2021/12/14 07:37:08;;;;;;;;;;;25.50;28.30;;;;;;508655;234;1232;-47
2021/12/14 07:39:09;;;;;;;;;;;25.50;28.30;;;;;;508388;234;1172;-47
2021/12/14 07:41:10;;;;;;;;;;;25.50;28.30;;;;;;508270;234;1230;-47
2021/12/14 07:43:11;;;;;;;;;;;25.50;28.30;;;;;;508207;234;2180;-47
2021/12/14 07:45:13;;;;;;;;;;;25.50;28.30;;;;;;508182;234;1201;-47
2021/12/14 07:47:15;;;;;;;;;;;25.50;28.30;;;;;;508545;234;1217;-47
2021/12/14 07:49:16;;;;;;;;;;;25.50;28.30;;;;;;508365;234;1143;-47
2021/12/14 07:51:17;;;;;;;;;;;25.50;28.30;;;;;;508291;234;1396;-47
2021/12/14 07:53:19;;;;;;;;;;;25.50;28.30;;;;;;508252;234;1216;-47
2021/12/14 07:55:21;;;;;;;;;;;25.50;28.30;;;;;;508142;234;1054;-47
2021/12/14 07:57:23;;;;;;;;;;;25.50;28.30;;;;;;507901;234;2279;-47
2021/12/14 07:59:23;;;;;;;;;;;25.50;28.30;;;;;;508033;233;1523;-47
2021/12/14 08:01:24;;;;;;;;;;;25.50;28.30;;;;;;507983;234;1305;-47
2021/12/14 08:03:28;;;;;;;;;;;25.50;28.20;;;;;;508038;234;2176;-47
2021/12/14 08:05:27;;;;;;;;;;;25.50;28.20;;;;;;508136;233;1411;-47
2021/12/14 08:07:28;;;;;;;;;;;25.50;28.30;;;;;;508089;234;1133;-47
2021/12/14 08:09:29;;;;;;;;;;;25.50;28.20;;;;;;508206;234;1074;-47
2021/12/14 08:11:47;;;;;;;;;;;25.50;28.20;;;;;;508339;234;1329;-47
2021/12/14 08:13:33;;;;;;;;;;;25.60;28.20;;;;;;507169;233;2224;-47
2021/12/14 08:15:35;;;;;;;;;;;25.50;28.20;;;;;;508197;234;1391;-47
2021/12/14 08:17:37;;;;;;;;;;;25.50;28.20;;;;;;508396;234;1080;-47
2021/12/14 08:19:38;;;;;;;;;;;25.50;28.20;;;;;;508328;234;1226;-47
2021/12/14 08:21:39;;;;;;;;;;;25.50;28.20;;;;;;508221;234;1308;-47
2021/12/14 08:23:41;;;;;;;;;;;25.50;28.20;;;;;;508385;234;2144;-47
2021/12/14 08:25:42;;;;;;;;;;;25.50;28.20;;;;;;508297;234;1101;-47
2021/12/14 08:27:43;;;;;;;;;;;25.50;28.20;;;;;;508177;234;1133;-47
2021/12/14 08:29:45;;;;;;;;;;;25.50;28.20;;;;;;508202;234;1102;-47
2021/12/14 08:31:46;;;;;;;;;;;25.50;28.10;;;;;;507938;234;1270;-47
2021/12/14 08:33:47;;;;;;;;;;;25.50;28.10;;;;;;508146;234;1188;-47
2021/12/14 08:35:49;;;;;;;;;;;25.50;28.10;;;;;;508192;234;1354;-47
2021/12/14 08:37:53;;;;;;;;;;;25.50;28.10;;;;;;508298;234;1110;-47
2021/12/14 08:39:52;;;;;;;;;;;25.50;28.10;;;;;;508036;233;1406;-47
2021/12/14 08:41:57;;;;;;;;;;;25.50;28.10;;;;;;508263;234;1176;-47
2021/12/14 08:43:57;;;;;;;;;;;25.50;28.10;;;;;;507903;234;2188;-47
2021/12/14 08:45:57;;;;;;;;;;;25.50;28.10;;;;;;508033;233;1198;-47
2021/12/14 08:47:58;;;;;;;;;;;25.50;28.10;;;;;;508144;234;1902;-47
2021/12/14 08:50:00;;;;;;;;;;;25.50;28.10;;;;;;508158;234;1133;-47
2021/12/14 08:52:01;;;;;;;;;;;25.50;28.00;;;;;;508158;234;3078;-47
2021/12/14 08:54:02;;;;;;;;;;;25.50;28.00;;;;;;508013;234;1124;-47
2021/12/14 08:56:03;;;;;;;;;;;25.50;28.00;;;;;;507944;234;1283;-47
2021/12/14 08:58:04;;;;;;;;;;;25.50;28.00;;;;;;507850;233;1151;-46
2021/12/14 09:00:08;;;;;;;;;;;25.50;28.00;;;;;;507948;234;1105;-47
2021/12/14 09:02:07;;;;;;;;;;;25.50;28.00;;;;;;507908;233;2343;-47
2021/12/14 09:04:09;;;;;;;;;;;25.50;28.00;;;;;;508546;233;2129;-47
2021/12/14 09:06:10;;;;;;;;;;;25.50;28.00;;;;;;508080;234;1366;-47
2021/12/14 09:08:12;;;;;;;;;;;25.50;28.00;;;;;;508492;233;1426;-47
2021/12/14 09:10:13;;;;;;;;;;;25.50;28.00;;;;;;508187;234;1136;-47
2021/12/14 09:12:15;;;;;;;;;;;25.50;28.00;;;;;;508004;234;1231;-47
2021/12/14 09:14:17;;;;;;;;;;;25.40;27.90;;;;;;508015;234;1102;-47
2021/12/14 09:16:17;;;;;;;;;;;25.40;28.00;;;;;;507979;234;2059;-47
2021/12/14 09:18:19;;;;;;;;;;;25.50;28.00;;;;;;507979;234;1329;-47
2021/12/14 09:20:20;;;;;;;;;;;25.50;27.90;;;;;;508113;234;1120;-47
2021/12/14 09:22:21;;;;;;;;;;;25.50;27.90;;;;;;508156;234;1206;-47
2021/12/14 09:24:23;;;;;;;;;;;25.50;27.90;;;;;;508280;234;2168;-47
2021/12/14 09:26:24;;;;;;;;;;;25.50;27.90;;;;;;508241;234;1111;-47
2021/12/14 09:28:25;;;;;;;;;;;25.50;27.90;;;;;;508196;234;1248;-47
2021/12/14 09:30:26;;;;;;;;;;;25.60;27.90;;;;;;508325;234;1239;-47
2021/12/14 09:32:28;;;;;;;;;;;25.50;27.80;;;;;;508036;234;1375;-47
2021/12/14 09:34:29;;;;;;;;;;;25.60;27.90;;;;;;508030;234;1387;-47
2021/12/14 09:36:30;;;;;;;;;;;25.50;27.90;;;;;;508306;234;1385;-46
2021/12/14 09:38:34;;;;;;;;;;;25.50;27.90;;;;;;508323;234;1146;-47
2021/12/14 09:40:33;;;;;;;;;;;25.50;27.90;;;;;;508148;233;2201;-47
2021/12/14 09:42:34;;;;;;;;;;;25.50;27.90;;;;;;508254;234;1265;-47
2021/12/14 09:44:36;;;;;;;;;;;25.60;28.00;;;;;;508314;234;2172;-47
2021/12/14 09:46:37;;;;;;;;;;;25.50;27.90;;;;;;508301;234;1215;-47
2021/12/14 09:48:39;;;;;;;;;;;25.50;27.90;;;;;;508274;234;1353;-47
2021/12/14 09:50:40;;;;;;;;;;;25.50;27.90;;;;;;508249;234;1232;-47
2021/12/14 09:52:43;;;;;;;;;;;25.60;28.00;;;;;;508547;234;1168;-47
2021/12/14 09:54:42;;;;;;;;;;;25.50;27.90;;;;;;508115;234;1351;-47
2021/12/14 09:56:44;;;;;;;;;;;25.50;27.90;;;;;;508031;234;1240;-47
2021/12/14 09:58:45;;;;;;;;;;;25.50;27.90;;;;;;508059;234;1049;-47
2021/12/14 10:00:47;;;;;;;;;;;25.50;27.90;;;;;;507984;234;1210;-47
2021/12/14 10:02:48;;;;;;;;;;;25.50;27.90;;;;;;508086;234;1198;-47
2021/12/14 10:04:49;;;;;;;;;;;25.50;27.90;;;;;;508185;234;2175;-47
2021/12/14 10:06:51;;;;;;;;;;;25.50;28.00;;;;;;508063;234;1063;-47
2021/12/14 10:08:56;;;;;;;;;;;25.50;28.00;;;;;;508121;234;1034;-47
2021/12/14 10:10:59;;;;;;;;;;;25.50;27.90;;;;;;507884;233;2111;-47
2021/12/14 10:12:56;;;;;;;;;;;25.50;28.00;;;;;;507296;234;2193;-47
2021/12/14 10:14:57;;;;;;;;;;;25.50;27.90;;;;;;507948;234;1212;-47
2021/12/14 10:16:59;;;;;;;;;;;25.50;27.90;;;;;;507998;234;1159;-47
2021/12/14 10:19:00;;;;;;;;;;;25.50;27.90;;;;;;508079;234;1339;-47
2021/12/14 10:21:02;;;;;;;;;;;25.50;27.90;;;;;;508151;234;1169;-47
2021/12/14 10:23:03;;;;;;;;;;;25.50;28.00;;;;;;508161;234;2172;-47
2021/12/14 10:25:04;;;;;;;;;;;25.50;28.00;;;;;;508233;234;1136;-47
2021/12/14 10:27:06;;;;;;;;;;;25.50;27.90;;;;;;508026;234;1144;-46
2021/12/14 10:29:07;;;;;;;;;;;25.50;28.00;;;;;;508125;234;1134;-47
2021/12/14 10:31:08;;;;;;;;;;;25.50;28.00;;;;;;508001;234;1314;-47
2021/12/14 10:33:10;;;;;;;;;;;25.50;28.00;;;;;;508116;234;1115;-47
2021/12/14 10:35:11;;;;;;;;;;;25.50;28.00;;;;;;508116;234;1090;-47
2021/12/14 10:37:17;;;;;;;;;;;25.60;28.00;;;;;;508315;233;1162;-47
2021/12/14 10:39:25;;;;;;;;;;;25.50;28.00;;;;;;507733;233;2237;-47
2021/12/14 10:43:49;;;;;;;;;;;25.50;28.00;;;;;;501917;234;2164;-47
2021/12/14 10:45:50;;;;;;;;;;;25.50;28.00;;;;;;508087;234;1249;-47
2021/12/14 10:47:51;;;;;;;;;;;25.60;28.00;;;;;;508094;234;1240;-47
2021/12/14 10:49:53;;;;;;;;;;;25.50;28.00;;;;;;508155;234;1214;-47
2021/12/14 10:51:54;;;;;;;;;;;25.50;28.00;;;;;;508272;234;1294;-47
2021/12/14 10:53:56;;;;;;;;;;;25.50;28.00;;;;;;508158;234;1367;-47
2021/12/14 10:55:57;;;;;;;;;;;25.50;28.00;;;;;;508308;234;1348;-47
2021/12/14 10:57:58;;;;;;;;;;;25.50;28.00;;;;;;508240;234;1033;-47
2021/12/14 10:59:59;;;;;;;;;;;25.50;28.10;;;;;;508237;234;1074;-47
2021/12/14 11:02:01;;;;;;;;;;;25.50;28.10;;;;;;508502;234;1263;-47
2021/12/14 11:04:02;;;;;;;;;;;25.50;28.10;;;;;;508276;234;2183;-46
2021/12/14 11:06:03;;;;;;;;;;;25.50;28.10;;;;;;508090;234;1323;-47
2021/12/14 11:08:05;;;;;;;;;;;25.50;28.10;;;;;;508241;234;1134;-46
2021/12/14 11:10:06;;;;;;;;;;;25.50;28.10;;;;;;508371;234;1090;-47
2021/12/14 11:12:07;;;;;;;;;;;25.50;28.10;;;;;;508187;234;1346;-47
2021/12/14 11:14:09;;;;;;;;;;;25.50;28.10;;;;;;508010;234;1221;-47
2021/12/14 11:16:16;;;;;;;;;;;25.50;28.10;;;;;;507983;234;1388;-47
2021/12/14 11:18:12;;;;;;;;;;;25.50;28.10;;;;;;508240;233;2234;-47
2021/12/14 11:20:13;;;;;;;;;;;25.50;28.10;;;;;;508057;234;1253;-47
2021/12/14 11:22:15;;;;;;;;;;;25.50;28.10;;;;;;508389;234;1270;-47
2021/12/14 11:24:16;;;;;;;;;;;25.60;28.20;;;;;;508497;234;2180;-47
2021/12/14 11:26:17;;;;;;;;;;;25.50;28.10;;;;;;508638;234;1210;-47
2021/12/14 11:28:19;;;;;;;;;;;25.50;28.20;;;;;;508211;234;1308;-47
2021/12/14 11:30:21;;;;;;;;;;;25.50;28.20;;;;;;508158;234;1160;-47
2021/12/14 11:32:22;;;;;;;;;;;25.50;28.20;;;;;;508358;234;1201;-47
2021/12/14 11:34:23;;;;;;;;;;;25.60;28.20;;;;;;508126;234;1130;-46
2021/12/14 11:36:24;;;;;;;;;;;25.50;28.20;;;;;;508116;232;1272;-47
2021/12/14 11:38:26;;;;;;;;;;;25.60;28.20;;;;;;508327;234;1194;-47
2021/12/14 11:40:27;;;;;;;;;;;25.60;28.20;;;;;;508160;234;1275;-47
2021/12/14 11:42:28;;;;;;;;;;;25.50;28.10;;;;;;508248;234;1565;-47
2021/12/14 11:44:30;;;;;;;;;;;25.60;28.20;;;;;;507898;234;2183;-47
2021/12/14 11:46:33;;;;;;;;;;;25.60;28.20;;;;;;508104;234;1265;-47
2021/12/14 11:48:32;;;;;;;;;;;25.60;28.20;;;;;;508353;234;1554;-47
2021/12/14 11:50:35;;;;;;;;;;;25.60;28.20;;;;;;508307;234;1052;-47
2021/12/14 11:52:35;;;;;;;;;;;25.50;28.20;;;;;;508093;234;1692;-47
2021/12/14 11:54:36;;;;;;;;;;;25.50;28.20;;;;;;508176;234;1058;-47
2021/12/14 11:56:38;;;;;;;;;;;25.50;28.20;;;;;;508170;234;1338;-46
2021/12/14 11:58:40;;;;;;;;;;;25.50;28.20;;;;;;508112;234;1064;-47
2021/12/14 12:00:40;;;;;;;;;;;25.50;28.20;;;;;;508072;234;2328;-47
2021/12/14 12:02:42;;;;;;;;;;;25.50;28.20;;;;;;508476;234;1274;-47
2021/12/14 12:04:46;;;;;;;;;;;25.50;28.20;;;;;;508042;234;2180;-47
2021/12/14 12:06:46;;;;;;;;;;;25.50;28.20;;;;;;507870;234;2180;-47
2021/12/14 12:11:05;;;;;;;;;;;25.60;28.30;;;;;;508094;234;1179;-47
2021/12/14 12:13:07;;;;;;;;;;;25.50;28.20;;;;;;508077;234;1153;-47
2021/12/14 12:15:09;;;;;;;;;;;25.60;28.30;;;;;;507960;234;1038;-47
2021/12/14 12:17:10;;;;;;;;;;;25.50;28.30;;;;;;508088;234;2360;-47
2021/12/14 12:19:13;;;;;;;;;;;25.60;28.30;;;;;;508981;234;964;-47
2021/12/14 12:21:12;;;;;;;;;;;25.60;28.30;;;;;;508343;234;2160;-47
2021/12/14 12:23:14;;;;;;;;;;;25.60;28.30;;;;;;508220;234;1175;-47
2021/12/14 12:25:15;;;;;;;;;;;25.60;28.30;;;;;;508066;234;2113;-47